Time;durP1;ratioP1;P1;durP2;ratioP2;P2;SDS_P1;SDS_P2;PMS_P1;PMS_P2;Temp;Humidity;BMP_temperature;BMP_pressure;BME280_temperature;BME280_humidity;BME280_pressure;Samples;Min_cycle;Max_cycle;Signal;HPM_P1;HPM_P2
2023/04/19 00:00:07;;;;;;;20.92;13.02;;;9.90;99.90;;;;;;5013536;28;20064;-64
2023/04/19 00:02:33;;;;;;;18.95;12.60;;;9.90;99.90;;;;;;5012088;28;20069;-68
2023/04/19 00:04:59;;;;;;;18.42;12.88;;;9.90;99.90;;;;;;5012968;28;20045;-63
2023/04/19 00:07:25;;;;;;;19.33;12.65;;;9.90;99.90;;;;;;5014120;28;20137;-64
2023/04/19 00:09:50;;;;;;;20.13;12.07;;;9.90;99.90;;;;;;5013589;28;20046;-66
2023/04/19 00:12:16;;;;;;;17.67;12.30;;;9.80;99.90;;;;;;5008221;28;20042;-63
2023/04/19 00:14:41;;;;;;;19.92;13.23;;;9.80;99.90;;;;;;5013006;28;20552;-63
2023/04/19 00:17:07;;;;;;;20.45;13.43;;;9.80;99.90;;;;;;5004989;28;20109;-65
2023/04/19 00:19:32;;;;;;;19.17;12.88;;;9.80;99.90;;;;;;5010208;28;20038;-64
2023/04/19 00:21:58;;;;;;;20.77;12.30;;;9.80;99.90;;;;;;4993626;28;20030;-64
2023/04/19 00:24:24;;;;;;;20.27;12.65;;;9.80;99.90;;;;;;5005365;28;20038;-64
2023/04/19 00:26:49;;;;;;;19.45;13.38;;;9.80;99.90;;;;;;5009954;28;20452;-66
2023/04/19 00:29:15;;;;;;;20.00;12.75;;;9.80;99.90;;;;;;5007375;28;20097;-63
2023/04/19 00:31:40;;;;;;;21.70;13.73;;;9.70;99.90;;;;;;5008012;28;20105;-63
2023/04/19 00:34:06;;;;;;;19.50;12.60;;;9.80;99.90;;;;;;5013211;28;20041;-63
2023/04/19 00:36:32;;;;;;;18.75;12.65;;;9.70;99.90;;;;;;5012268;28;20041;-66
2023/04/19 00:38:57;;;;;;;21.83;12.98;;;9.70;99.90;;;;;;5012988;28;20506;-63
2023/04/19 00:41:23;;;;;;;17.95;12.82;;;9.70;99.90;;;;;;5012889;28;20068;-63
2023/04/19 00:43:48;;;;;;;19.85;12.82;;;9.70;99.90;;;;;;5012660;28;20081;-63
2023/04/19 00:46:14;;;;;;;19.40;12.70;;;9.70;99.90;;;;;;5012143;28;20038;-66
2023/04/19 00:48:40;;;;;;;19.52;12.57;;;9.70;99.90;;;;;;5010706;28;20040;-65
2023/04/19 00:51:06;;;;;;;16.77;11.52;;;9.60;99.90;;;;;;4988123;28;20046;-67
2023/04/19 00:53:32;;;;;;;16.92;12.45;;;9.60;99.90;;;;;;5013902;28;20052;-66
2023/04/19 00:56:03;;;;;;;18.70;12.63;;;9.60;99.90;;;;;;5018059;28;20117;-65
2023/04/19 00:58:30;;;;;;;18.73;12.43;;;9.60;99.90;;;;;;5012594;28;20042;-65
2023/04/19 01:00:56;;;;;;;24.35;12.32;;;9.60;99.90;;;;;;5012552;28;20033;-66
2023/04/19 01:03:22;;;;;;;17.23;11.07;;;9.60;99.90;;;;;;5012244;28;20038;-66
2023/04/19 01:05:48;;;;;;;17.85;11.63;;;9.70;99.90;;;;;;5012095;28;20040;-67
2023/04/19 01:08:14;;;;;;;17.45;11.55;;;9.60;99.90;;;;;;5012345;28;20045;-66
2023/04/19 01:10:40;;;;;;;18.80;11.40;;;9.60;99.90;;;;;;5015541;28;20041;-66
2023/04/19 01:13:05;;;;;;;16.98;10.93;;;9.60;99.90;;;;;;5012189;28;20042;-66
2023/04/19 01:15:31;;;;;;;15.05;10.77;;;9.70;99.90;;;;;;5009403;28;20038;-66
2023/04/19 01:17:56;;;;;;;18.63;10.65;;;9.70;99.90;;;;;;5012432;28;20073;-66
2023/04/19 01:20:22;;;;;;;18.58;10.77;;;9.60;99.90;;;;;;5004512;28;20301;-66
2023/04/19 01:22:48;;;;;;;14.98;10.85;;;9.70;99.90;;;;;;5011917;28;20030;-66
2023/04/19 01:25:14;;;;;;;17.58;10.65;;;9.70;99.90;;;;;;5011785;28;20088;-66
2023/04/19 01:27:39;;;;;;;17.73;10.88;;;9.70;99.90;;;;;;5015187;28;20041;-66
2023/04/19 01:30:06;;;;;;;15.35;10.32;;;9.70;99.90;;;;;;5005671;28;20030;-65
2023/04/19 01:32:31;;;;;;;16.65;10.05;;;9.70;99.90;;;;;;5013446;28;20038;-63
2023/04/19 01:34:57;;;;;;;15.65;9.98;;;9.70;99.90;;;;;;5011617;28;20071;-66
2023/04/19 01:37:22;;;;;;;13.82;10.07;;;9.70;99.90;;;;;;4993804;28;20511;-66
2023/04/19 01:39:48;;;;;;;14.85;10.40;;;9.70;99.90;;;;;;5007241;28;20026;-66
2023/04/19 01:42:14;;;;;;;14.82;10.23;;;9.70;99.90;;;;;;4994037;28;20048;-66
2023/04/19 01:44:40;;;;;;;16.45;9.68;;;9.70;99.90;;;;;;5011815;28;20095;-65
2023/04/19 01:47:05;;;;;;;16.27;10.40;;;9.70;99.90;;;;;;5011524;28;20061;-65
2023/04/19 01:49:31;;;;;;;14.52;10.20;;;9.60;99.90;;;;;;5005477;28;20113;-66
2023/04/19 01:51:56;;;;;;;14.27;9.20;;;9.60;99.90;;;;;;5009049;28;20037;-65
2023/04/19 01:54:22;;;;;;;14.63;9.50;;;9.70;99.90;;;;;;5011329;28;20040;-65
2023/04/19 01:56:47;;;;;;;16.08;9.38;;;9.70;99.90;;;;;;5010578;28;20495;-66
2023/04/19 01:59:13;;;;;;;14.05;9.00;;;9.60;99.90;;;;;;5011478;28;20037;-66
2023/04/19 02:01:39;;;;;;;14.60;8.82;;;9.60;99.90;;;;;;5003669;28;20076;-66
2023/04/19 02:04:06;;;;;;;14.65;9.18;;;9.60;99.90;;;;;;5011263;28;20033;-65
2023/04/19 02:06:32;;;;;;;14.30;9.10;;;9.60;99.90;;;;;;5010689;28;20048;-65
2023/04/19 02:08:57;;;;;;;13.82;8.57;;;9.60;99.90;;;;;;5011173;28;20042;-66
2023/04/19 02:11:23;;;;;;;11.77;8.20;;;9.60;99.90;;;;;;5011103;28;20076;-66
2023/04/19 02:13:48;;;;;;;15.30;8.88;;;9.60;99.90;;;;;;5011078;28;20038;-65
2023/04/19 02:16:14;;;;;;;13.98;8.50;;;9.60;99.90;;;;;;4993234;28;20050;-66
2023/04/19 02:18:40;;;;;;;13.35;8.60;;;9.60;99.90;;;;;;5009881;28;20044;-66
2023/04/19 02:21:06;;;;;;;11.32;7.82;;;9.60;99.90;;;;;;4993392;28;20046;-66
2023/04/19 02:23:32;;;;;;;12.57;8.27;;;9.50;99.90;;;;;;5010874;28;20040;-64
2023/04/19 02:25:58;;;;;;;12.38;8.20;;;9.50;99.90;;;;;;5010624;28;20156;-65
2023/04/19 02:28:23;;;;;;;11.73;8.10;;;9.50;99.90;;;;;;5011462;28;20037;-66
2023/04/19 02:30:49;;;;;;;14.70;8.57;;;9.50;99.90;;;;;;5008918;28;20038;-66
2023/04/19 02:33:15;;;;;;;13.73;8.48;;;9.50;99.90;;;;;;5005394;28;20042;-66
2023/04/19 02:35:40;;;;;;;13.45;7.90;;;9.50;99.90;;;;;;5010509;28;20041;-66
2023/04/19 02:38:06;;;;;;;13.00;7.95;;;9.40;99.90;;;;;;5010668;28;20029;-65
2023/04/19 02:40:32;;;;;;;13.30;8.82;;;9.50;99.90;;;;;;5010634;28;20042;-65
2023/04/19 02:42:57;;;;;;;13.95;8.23;;;9.40;99.90;;;;;;5010940;28;20033;-65
2023/04/19 02:45:23;;;;;;;14.48;8.35;;;9.40;99.90;;;;;;5013184;28;20097;-66
2023/04/19 02:47:49;;;;;;;13.40;8.38;;;9.40;99.90;;;;;;5015702;28;20066;-66
2023/04/19 02:50:15;;;;;;;13.82;7.72;;;9.40;99.90;;;;;;5015151;28;20041;-66
2023/04/19 02:52:41;;;;;;;15.63;8.77;;;9.40;99.90;;;;;;5014573;28;20045;-66
2023/04/19 02:55:07;;;;;;;15.50;8.88;;;9.40;99.90;;;;;;5007334;28;20042;-66
2023/04/19 02:57:33;;;;;;;12.45;7.93;;;9.30;99.90;;;;;;5014955;28;20492;-66
2023/04/19 02:59:58;;;;;;;12.20;7.95;;;9.30;99.90;;;;;;5008945;28;20044;-65
2023/04/19 03:02:24;;;;;;;11.98;8.25;;;9.30;99.90;;;;;;5014557;28;20117;-65
2023/04/19 03:04:51;;;;;;;12.60;7.78;;;9.30;99.90;;;;;;5014280;28;20046;-65
2023/04/19 03:07:17;;;;;;;13.45;8.45;;;9.30;99.90;;;;;;4996962;28;20077;-65
2023/04/19 03:09:43;;;;;;;11.77;7.78;;;9.30;99.90;;;;;;5014081;28;20049;-65
2023/04/19 03:12:08;;;;;;;15.15;7.93;;;9.20;99.90;;;;;;5014855;28;20508;-64
2023/04/19 03:14:34;;;;;;;15.07;7.88;;;9.20;99.90;;;;;;5014644;28;20045;-63
2023/04/19 03:17:00;;;;;;;12.43;7.88;;;9.10;99.90;;;;;;4996569;28;20523;-66
2023/04/19 03:19:25;;;;;;;13.07;8.10;;;9.10;99.90;;;;;;5014516;28;20076;-66
2023/04/19 03:21:51;;;;;;;14.88;8.32;;;9.10;99.90;;;;;;5014032;28;20044;-65
2023/04/19 03:24:26;;;;;;;12.57;7.95;;;9.00;99.90;;;;;;5015728;28;20610;-66
2023/04/19 03:26:52;;;;;;;12.13;8.32;;;9.00;99.90;;;;;;5016931;28;20056;-66
2023/04/19 03:29:17;;;;;;;12.15;8.07;;;9.00;99.90;;;;;;5014034;28;20038;-65
2023/04/19 03:31:43;;;;;;;13.95;8.10;;;9.00;99.90;;;;;;5013854;28;20030;-64
2023/04/19 03:34:08;;;;;;;13.27;8.30;;;8.90;99.90;;;;;;5014129;28;20065;-66
2023/04/19 03:36:34;;;;;;;12.05;8.15;;;8.90;99.90;;;;;;5013337;28;20038;-66
2023/04/19 03:39:01;;;;;;;12.52;8.48;;;8.90;99.90;;;;;;4996143;28;20042;-66
2023/04/19 03:41:27;;;;;;;15.07;8.95;;;8.90;99.90;;;;;;5014160;28;20064;-66
2023/04/19 03:43:52;;;;;;;16.00;8.95;;;8.80;99.90;;;;;;5013530;28;20038;-66
2023/04/19 03:46:18;;;;;;;12.43;8.75;;;8.80;99.90;;;;;;5013750;28;20045;-65
2023/04/19 03:48:43;;;;;;;12.55;8.60;;;8.80;99.90;;;;;;4996416;28;20048;-65
2023/04/19 03:51:09;;;;;;;13.18;8.98;;;8.70;99.90;;;;;;5013590;28;20045;-65
2023/04/19 03:53:35;;;;;;;15.20;9.30;;;8.70;99.90;;;;;;5013617;28;20448;-66
2023/04/19 03:56:01;;;;;;;12.80;8.68;;;8.60;99.90;;;;;;5016185;28;20568;-64
2023/04/19 03:58:27;;;;;;;14.98;9.15;;;8.60;99.90;;;;;;5019089;28;20132;-66
2023/04/19 04:00:52;;;;;;;14.70;8.50;;;8.60;99.90;;;;;;5012283;28;20030;-66
2023/04/19 04:03:18;;;;;;;15.43;9.25;;;8.50;99.90;;;;;;5013484;28;20037;-65
2023/04/19 04:05:44;;;;;;;13.75;9.00;;;8.50;99.90;;;;;;5013005;28;20050;-63
2023/04/19 04:08:10;;;;;;;16.75;9.38;;;8.40;99.90;;;;;;4995707;28;20049;-64
2023/04/19 04:10:35;;;;;;;15.13;8.98;;;8.40;99.90;;;;;;5013350;28;20373;-66
2023/04/19 04:13:01;;;;;;;16.08;9.75;;;8.40;99.90;;;;;;5013120;28;20041;-66
2023/04/19 04:15:26;;;;;;;15.32;10.15;;;8.30;99.90;;;;;;5013547;28;20042;-65
2023/04/19 04:17:52;;;;;;;14.57;9.35;;;8.30;99.90;;;;;;5013334;28;20037;-66
2023/04/19 04:20:18;;;;;;;17.10;9.40;;;8.30;99.90;;;;;;5024600;28;20029;-66
2023/04/19 04:22:45;;;;;;;17.20;9.68;;;8.30;99.90;;;;;;5017086;28;20080;-66
2023/04/19 04:25:11;;;;;;;16.70;8.98;;;8.20;99.90;;;;;;5017431;28;20053;-66
2023/04/19 04:27:38;;;;;;;15.30;9.07;;;8.20;99.90;;;;;;5005087;28;20046;-65
2023/04/19 04:30:05;;;;;;;14.90;9.20;;;8.10;99.90;;;;;;5004880;28;20041;-65
2023/04/19 04:32:34;;;;;;;13.18;8.63;;;8.10;99.90;;;;;;4995537;28;20081;-64
2023/04/19 04:35:00;;;;;;;14.85;9.25;;;8.10;99.90;;;;;;4991708;28;20046;-66
2023/04/19 04:37:26;;;;;;;13.95;8.85;;;8.00;99.90;;;;;;5012910;28;20492;-66
2023/04/19 04:39:51;;;;;;;12.80;9.13;;;8.00;99.90;;;;;;5013206;28;20057;-66
2023/04/19 04:42:20;;;;;;;14.70;8.65;;;8.00;99.90;;;;;;5012583;28;20103;-66
2023/04/19 04:44:46;;;;;;;15.90;8.43;;;7.90;99.90;;;;;;5012766;28;20041;-65
2023/04/19 04:47:14;;;;;;;13.63;8.38;;;7.90;99.90;;;;;;5013156;28;20037;-65
2023/04/19 04:49:40;;;;;;;13.63;8.82;;;7.90;99.90;;;;;;5009331;28;20038;-65
2023/04/19 04:52:07;;;;;;;12.70;7.93;;;7.90;99.90;;;;;;4994291;28;20038;-65
2023/04/19 04:54:33;;;;;;;13.52;8.40;;;7.80;99.90;;;;;;5011806;28;20049;-66
2023/04/19 04:56:59;;;;;;;10.73;7.53;;;7.80;99.90;;;;;;5013376;28;20092;-66
2023/04/19 04:59:25;;;;;;;12.02;7.70;;;7.80;99.90;;;;;;5008905;28;20443;-65
2023/04/19 05:01:51;;;;;;;11.52;7.82;;;7.80;99.90;;;;;;5006817;28;20030;-66
2023/04/19 05:04:17;;;;;;;12.45;7.53;;;7.70;99.90;;;;;;4988782;28;20096;-65
2023/04/19 05:06:43;;;;;;;12.30;7.72;;;7.70;99.90;;;;;;5005252;28;20046;-66
2023/04/19 05:09:09;;;;;;;12.57;7.28;;;7.70;99.90;;;;;;5011176;28;20385;-65
2023/04/19 05:11:35;;;;;;;14.38;7.93;;;7.70;99.90;;;;;;5011909;28;20049;-66
2023/04/19 05:14:02;;;;;;;13.82;8.18;;;7.70;99.90;;;;;;5011524;28;20061;-66
2023/04/19 05:16:27;;;;;;;11.57;7.22;;;7.70;99.90;;;;;;5011109;28;20103;-66
2023/04/19 05:18:53;;;;;;;14.00;6.97;;;7.70;99.90;;;;;;5012004;28;20472;-66
2023/04/19 05:21:18;;;;;;;16.17;7.35;;;7.80;99.90;;;;;;5006848;28;20127;-66
2023/04/19 05:23:44;;;;;;;12.82;7.68;;;7.60;99.90;;;;;;5008436;28;20221;-63
2023/04/19 05:26:11;;;;;;;11.50;7.32;;;7.60;99.90;;;;;;4990980;28;20073;-65
2023/04/19 05:28:37;;;;;;;10.85;7.00;;;7.60;99.90;;;;;;4998537;28;20050;-66
2023/04/19 05:31:03;;;;;;;11.90;7.70;;;7.60;99.90;;;;;;5003344;28;20045;-65
2023/04/19 05:33:29;;;;;;;11.98;6.85;;;7.60;99.90;;;;;;4983763;28;20042;-65
2023/04/19 05:35:54;;;;;;;11.50;7.10;;;7.60;99.90;;;;;;5010894;28;20042;-64
2023/04/19 05:38:20;;;;;;;11.35;7.45;;;7.60;99.90;;;;;;5011721;28;20034;-66
2023/04/19 05:40:45;;;;;;;11.57;7.30;;;7.60;99.90;;;;;;5011263;28;20443;-65
2023/04/19 05:43:11;;;;;;;13.85;7.25;;;7.60;99.90;;;;;;5005780;28;20038;-65
2023/04/19 05:45:37;;;;;;;12.80;7.22;;;7.50;99.90;;;;;;5007831;28;20050;-64
2023/04/19 05:48:02;;;;;;;12.30;6.78;;;7.50;99.90;;;;;;5011180;28;20041;-66
2023/04/19 05:50:28;;;;;;;11.85;6.82;;;7.50;99.90;;;;;;5011540;28;20044;-66
2023/04/19 05:52:54;;;;;;;12.75;6.90;;;7.60;99.90;;;;;;4993305;28;20042;-66
2023/04/19 05:55:19;;;;;;;9.70;6.38;;;7.50;99.90;;;;;;4993314;28;20042;-65
2023/04/19 05:57:45;;;;;;;13.63;6.78;;;7.50;99.90;;;;;;5010605;28;20559;-66
2023/04/19 06:00:11;;;;;;;14.00;7.47;;;7.50;99.90;;;;;;5010966;28;20037;-66
2023/04/19 06:02:37;;;;;;;12.95;6.72;;;7.60;99.90;;;;;;5008862;28;20042;-66
2023/04/19 06:05:03;;;;;;;14.48;6.60;;;7.60;99.90;;;;;;5002575;28;20038;-66
2023/04/19 06:07:31;;;;;;;14.63;6.60;;;7.60;99.90;;;;;;4992497;28;20050;-66
2023/04/19 06:09:57;;;;;;;10.52;6.80;;;7.60;99.90;;;;;;5001906;28;20069;-66
2023/04/19 06:12:23;;;;;;;10.65;6.35;;;7.60;99.90;;;;;;5006468;28;20492;-66
2023/04/19 06:14:48;;;;;;;10.00;6.35;;;7.60;99.90;;;;;;5007291;28;20133;-65
2023/04/19 06:17:15;;;;;;;10.05;5.90;;;7.60;99.90;;;;;;4986693;28;20050;-65
2023/04/19 06:19:41;;;;;;;9.18;6.00;;;7.60;99.90;;;;;;5006730;28;20181;-65
2023/04/19 06:22:07;;;;;;;10.48;5.78;;;7.60;99.90;;;;;;4986736;28;20125;-66
2023/04/19 06:24:33;;;;;;;8.75;5.68;;;7.60;99.90;;;;;;5005214;28;20485;-66
2023/04/19 06:26:58;;;;;;;11.43;5.50;;;7.70;99.90;;;;;;4987561;28;20179;-65
2023/04/19 06:29:24;;;;;;;7.78;5.25;;;7.70;99.90;;;;;;5002239;28;20042;-63
2023/04/19 06:31:50;;;;;;;11.23;5.28;;;7.70;99.90;;;;;;4986080;28;20321;-66
2023/04/19 06:34:15;;;;;;;10.75;5.22;;;7.70;99.90;;;;;;5010282;28;20033;-66
2023/04/19 06:36:41;;;;;;;8.65;4.93;;;7.80;99.90;;;;;;5013473;28;20038;-66
2023/04/19 06:39:07;;;;;;;11.48;4.95;;;7.80;99.90;;;;;;5015940;28;20095;-66
2023/04/19 06:41:32;;;;;;;7.95;4.65;;;7.80;99.90;;;;;;4990154;28;20038;-63
2023/04/19 06:43:58;;;;;;;9.43;5.30;;;7.80;99.90;;;;;;4986772;28;20048;-66
2023/04/19 06:46:23;;;;;;;8.77;4.63;;;7.80;99.90;;;;;;5009924;28;20038;-66
2023/04/19 06:48:49;;;;;;;12.68;5.35;;;7.80;99.90;;;;;;5010355;28;20037;-66
2023/04/19 06:51:15;;;;;;;9.98;4.60;;;7.90;99.90;;;;;;5010226;28;20038;-64
2023/04/19 06:53:41;;;;;;;9.65;4.95;;;7.90;99.90;;;;;;5012072;28;20042;-63
2023/04/19 06:56:06;;;;;;;9.23;4.85;;;7.90;99.90;;;;;;4987490;28;20045;-63
2023/04/19 06:58:32;;;;;;;8.88;4.55;;;7.90;99.90;;;;;;5004036;28;20034;-63
2023/04/19 07:00:58;;;;;;;10.00;4.82;;;8.00;99.90;;;;;;5009761;28;20061;-63
2023/04/19 07:03:27;;;;;;;8.13;4.35;;;8.00;99.90;;;;;;5010386;28;20084;-63
2023/04/19 07:05:55;;;;;;;9.65;4.63;;;8.00;99.90;;;;;;5006861;28;20129;-63
2023/04/19 07:08:21;;;;;;;9.15;4.28;;;8.00;99.90;;;;;;4992115;28;20129;-63
2023/04/19 07:10:46;;;;;;;8.25;4.60;;;8.10;99.90;;;;;;5009925;28;20500;-63
2023/04/19 07:13:12;;;;;;;8.15;4.40;;;8.00;99.90;;;;;;5006127;28;20044;-63
2023/04/19 07:15:38;;;;;;;8.30;3.80;;;8.10;99.90;;;;;;4999794;28;20118;-65
2023/04/19 07:18:04;;;;;;;6.70;4.38;;;8.10;99.90;;;;;;4989175;28;20048;-66
2023/04/19 07:20:30;;;;;;;14.75;4.20;;;8.20;99.90;;;;;;5010484;28;20065;-63
2023/04/19 07:22:57;;;;;;;6.85;3.58;;;8.20;99.90;;;;;;5009736;28;20488;-65
2023/04/19 07:25:23;;;;;;;6.70;3.90;;;8.20;99.90;;;;;;5005170;28;20370;-63
2023/04/19 07:27:48;;;;;;;9.25;3.80;;;8.20;99.90;;;;;;5009907;28;20065;-64
2023/04/19 07:30:14;;;;;;;8.45;3.80;;;8.20;99.90;;;;;;5013541;28;20121;-67
2023/04/19 07:32:39;;;;;;;6.68;3.17;;;8.30;99.90;;;;;;5004730;28;20049;-64
2023/04/19 07:35:06;;;;;;;5.38;2.92;;;8.30;99.90;;;;;;4991715;28;20103;-64
2023/04/19 07:37:31;;;;;;;6.72;3.25;;;8.40;99.90;;;;;;5012039;28;20034;-69
2023/04/19 07:39:57;;;;;;;5.13;3.10;;;8.40;99.90;;;;;;5013838;28;20074;-64
2023/04/19 07:42:24;;;;;;;7.50;3.10;;;8.40;99.90;;;;;;4995767;28;20369;-68
2023/04/19 07:44:49;;;;;;;6.97;3.17;;;8.40;99.90;;;;;;4995777;28;20359;-63
2023/04/19 07:47:15;;;;;;;5.53;2.90;;;8.40;99.90;;;;;;5016063;28;20034;-63
2023/04/19 07:49:43;;;;;;;5.43;2.70;;;8.50;99.90;;;;;;5015716;28;20451;-66
2023/04/19 07:52:08;;;;;;;4.50;2.42;;;8.50;99.90;;;;;;5013908;28;20040;-69
2023/04/19 07:54:34;;;;;;;7.03;2.92;;;8.60;99.90;;;;;;5019807;28;20224;-64
2023/04/19 07:57:00;;;;;;;6.00;2.50;;;8.60;99.90;;;;;;5013007;28;20029;-64
2023/04/19 07:59:26;;;;;;;4.72;2.67;;;8.60;99.90;;;;;;5018595;28;20081;-64
2023/04/19 08:01:52;;;;;;;5.15;2.20;;;8.70;99.90;;;;;;5013761;28;20451;-64
2023/04/19 08:04:18;;;;;;;7.15;2.67;;;8.70;99.90;;;;;;5016693;28;20030;-64
2023/04/19 08:06:44;;;;;;;4.80;2.45;;;8.70;99.90;;;;;;5014538;28;20572;-64
2023/04/19 08:09:10;;;;;;;5.10;2.80;;;8.80;99.90;;;;;;4998630;28;20053;-64
2023/04/19 08:11:36;;;;;;;5.35;2.42;;;8.80;99.90;;;;;;5009268;28;20050;-65
2023/04/19 08:14:01;;;;;;;8.85;2.88;;;8.80;99.90;;;;;;5012849;28;20404;-68
2023/04/19 08:16:28;;;;;;;5.55;2.08;;;8.90;99.90;;;;;;5015846;28;20070;-64
2023/04/19 08:18:54;;;;;;;3.53;2.40;;;8.90;99.90;;;;;;5013029;28;20096;-64
2023/04/19 08:21:20;;;;;;;5.22;2.50;;;9.00;99.90;;;;;;5015284;28;20080;-65
2023/04/19 08:23:48;;;;;;;5.07;2.80;;;9.10;99.90;;;;;;5020095;28;20041;-68
2023/04/19 08:26:13;;;;;;;3.90;2.28;;;9.10;99.90;;;;;;5011695;28;20297;-63
2023/04/19 08:28:39;;;;;;;5.20;2.55;;;9.20;99.90;;;;;;5012878;28;20128;-64
2023/04/19 08:31:09;;;;;;;4.53;2.60;;;9.20;99.90;;;;;;4991321;28;20046;-63
2023/04/19 08:33:34;;;;;;;5.90;2.58;;;9.20;99.90;;;;;;5009838;28;20096;-64
2023/04/19 08:36:00;;;;;;;4.63;2.75;;;9.30;99.90;;;;;;5012247;28;20092;-64
2023/04/19 08:38:26;;;;;;;6.22;3.05;;;9.40;99.90;;;;;;5012266;28;20127;-68
2023/04/19 08:40:53;;;;;;;5.28;2.70;;;9.50;99.90;;;;;;5015789;28;20094;-63
2023/04/19 08:43:20;;;;;;;5.28;2.78;;;9.70;99.90;;;;;;5006491;28;20064;-63
2023/04/19 08:45:48;;;;;;;7.40;2.97;;;9.90;99.90;;;;;;5014406;28;20107;-63
2023/04/19 08:48:15;;;;;;;5.32;2.78;;;10.10;99.90;;;;;;5011972;28;20180;-67
2023/04/19 08:50:41;;;;;;;6.22;2.90;;;10.40;99.90;;;;;;5004317;28;20049;-64
2023/04/19 08:53:08;;;;;;;5.43;2.78;;;10.70;99.90;;;;;;5016504;28;20038;-64
2023/04/19 08:55:36;;;;;;;6.28;3.50;;;10.90;99.90;;;;;;5011154;28;20073;-64
2023/04/19 08:58:03;;;;;;;7.57;2.80;;;11.10;99.90;;;;;;4994579;28;20093;-63
2023/04/19 09:00:31;;;;;;;8.35;3.28;;;11.30;99.90;;;;;;5017857;28;20038;-69
2023/04/19 09:02:57;;;;;;;4.65;3.00;;;11.50;99.90;;;;;;4999413;28;20038;-67
2023/04/19 09:05:23;;;;;;;4.63;2.80;;;11.70;99.90;;;;;;5003508;28;20043;-64
2023/04/19 09:07:49;;;;;;;5.70;2.83;;;11.90;99.60;;;;;;5010226;28;20072;-66
2023/04/19 09:10:19;;;;;;;5.03;3.33;;;12.10;99.10;;;;;;5008946;28;20229;-63
2023/04/19 09:13:04;;;;;;;8.10;3.30;;;12.20;98.50;;;;;;5011694;28;20041;-64
2023/04/19 09:15:42;;;;;;;5.65;3.00;;;12.40;96.20;;;;;;5008936;28;20037;-66
2023/04/19 09:18:09;;;;;;;6.50;3.20;;;12.60;97.10;;;;;;5008844;28;20049;-67
2023/04/19 09:20:40;;;;;;;7.28;3.20;;;12.70;97.60;;;;;;5011425;28;20053;-67
2023/04/19 09:23:08;;;;;;;4.85;2.90;;;12.90;95.50;;;;;;5010682;28;20033;-63
2023/04/19 09:25:34;;;;;;;6.05;3.10;;;13.00;96.30;;;;;;5011536;28;20081;-64
2023/04/19 09:28:11;;;;;;;5.28;3.40;;;13.20;96.30;;;;;;5007778;28;20459;-64
2023/04/19 09:30:37;;;;;;;5.63;3.33;;;13.40;94.80;;;;;;5008978;28;20511;-67
2023/04/19 09:33:03;;;;;;;7.43;3.22;;;13.60;94.90;;;;;;5011858;28;20400;-64
2023/04/19 09:35:47;;;;;;;5.15;3.22;;;13.70;93.80;;;;;;5007225;28;20034;-63
2023/04/19 09:38:13;;;;;;;8.52;2.90;;;13.80;91.60;;;;;;5011733;28;20056;-63
2023/04/19 09:40:40;;;;;;;5.38;3.22;;;13.80;91.90;;;;;;5011843;28;20048;-63
2023/04/19 09:43:05;;;;;;;5.50;2.78;;;13.90;91.20;;;;;;5011346;28;20044;-67
2023/04/19 09:45:41;;;;;;;4.93;2.58;;;14.10;90.30;;;;;;5011221;28;20130;-64
2023/04/19 09:48:08;;;;;;;5.72;2.95;;;14.30;88.30;;;;;;5011861;28;20080;-63
2023/04/19 09:50:35;;;;;;;7.43;3.05;;;14.50;87.60;;;;;;5014155;28;20034;-68
2023/04/19 09:53:02;;;;;;;5.93;2.85;;;14.70;87.60;;;;;;4994376;28;20042;-64
2023/04/19 09:55:27;;;;;;;4.68;3.00;;;14.80;87.10;;;;;;5010957;28;20400;-64
2023/04/19 09:57:53;;;;;;;8.45;2.70;;;15.00;86.80;;;;;;5011501;28;20038;-64
2023/04/19 10:00:20;;;;;;;9.02;3.15;;;15.10;84.50;;;;;;4992726;28;20104;-64
2023/04/19 10:02:53;;;;;;;5.07;2.58;;;15.10;78.70;;;;;;5017532;28;20048;-64
2023/04/19 10:05:20;;;;;;;6.07;2.35;;;15.00;77.70;;;;;;5010951;28;20054;-65
2023/04/19 10:07:47;;;;;;;4.65;2.53;;;15.10;76.20;;;;;;5011389;28;20107;-63
2023/04/19 10:10:15;;;;;;;6.85;2.63;;;15.20;75.60;;;;;;5011438;28;20492;-64
2023/04/19 10:12:44;;;;;;;6.40;3.00;;;15.40;76.20;;;;;;5004545;28;20574;-64
2023/04/19 10:15:12;;;;;;;4.38;2.58;;;15.40;74.60;;;;;;4988181;28;20042;-63
2023/04/19 10:17:38;;;;;;;5.32;2.67;;;15.50;74.10;;;;;;5009180;28;20400;-63
2023/04/19 10:20:09;;;;;;;6.95;2.63;;;15.60;73.90;;;;;;5007979;28;20042;-64
2023/04/19 10:22:38;;;;;;;5.33;2.60;;;15.60;72.60;;;;;;5007835;28;20391;-63
2023/04/19 10:25:14;;;;;;;3.60;2.78;;;15.80;73.90;;;;;;5010390;28;20041;-64
2023/04/19 10:27:44;;;;;;;4.82;2.70;;;16.00;71.00;;;;;;5010537;28;20447;-64
2023/04/19 10:30:20;;;;;;;3.38;2.40;;;16.10;72.80;;;;;;5005283;28;20519;-64
2023/04/19 10:32:55;;;;;;;6.40;2.70;;;16.30;72.00;;;;;;5010831;28;20029;-64
2023/04/19 10:35:23;;;;;;;9.02;2.65;;;16.30;71.50;;;;;;5012085;28;20046;-64
2023/04/19 10:38:06;;;;;;;5.35;2.42;;;16.30;69.50;;;;;;5010109;28;20045;-64
2023/04/19 10:40:52;;;;;;;4.57;2.10;;;16.40;67.10;;;;;;4992768;28;20069;-64
2023/04/19 10:43:19;;;;;;;3.95;2.13;;;16.40;66.60;;;;;;4976652;28;20184;-64
2023/04/19 10:45:45;;;;;;;4.28;2.30;;;16.50;67.70;;;;;;4992538;28;20480;-64
2023/04/19 10:48:37;;;;;;;5.03;2.25;;;16.60;67.40;;;;;;5013225;28;20049;-63
2023/04/19 10:51:17;;;;;;;;;;;16.60;65.20;;;;;;4986467;28;20041;-63
2023/04/19 10:53:51;;;;;;;4.10;2.28;;;16.70;62.90;;;;;;5008456;28;19917;-63
2023/04/19 10:56:20;;;;;;;4.70;2.40;;;16.90;67.80;;;;;;5009957;28;20045;-64
2023/04/19 10:59:01;;;;;;;4.32;2.15;;;17.00;66.10;;;;;;4996472;28;20052;-63
2023/04/19 11:01:38;;;;;;;3.72;2.03;;;17.10;63.50;;;;;;4987371;28;20540;-63
2023/04/19 11:04:10;;;;;;;3.80;2.10;;;17.20;62.20;;;;;;4986160;28;20034;-63
2023/04/19 11:06:37;;;;;;;3.88;2.53;;;17.30;63.00;;;;;;5014429;28;20053;-66
2023/04/19 11:09:08;;;;;;;4.25;2.30;;;17.30;62.30;;;;;;5010111;28;20042;-63
2023/04/19 11:11:35;;;;;;;5.03;2.57;;;17.30;60.50;;;;;;5013145;28;20115;-63
2023/04/19 11:14:03;;;;;;;2.92;2.10;;;17.20;60.10;;;;;;5006997;28;20049;-63
2023/04/19 11:16:29;;;;;;;3.25;2.20;;;17.30;59.80;;;;;;5013672;28;20595;-63
2023/04/19 11:18:55;;;;;;;3.78;2.00;;;17.40;59.00;;;;;;5007466;28;20038;-67
2023/04/19 11:21:21;;;;;;;5.60;2.10;;;17.40;58.70;;;;;;5013696;28;20038;-63
2023/04/19 11:23:48;;;;;;;4.70;2.20;;;17.40;58.70;;;;;;5001534;28;20050;-63
2023/04/19 11:26:14;;;;;;;4.32;2.30;;;17.50;57.60;;;;;;4996476;28;20046;-63
2023/04/19 11:28:39;;;;;;;3.63;2.42;;;17.60;57.90;;;;;;5014384;28;20099;-63
2023/04/19 11:31:05;;;;;;;4.20;2.25;;;17.60;57.70;;;;;;5003701;28;20500;-66
2023/04/19 11:33:35;;;;;;;3.97;2.20;;;17.60;58.00;;;;;;5010779;28;20045;-67
2023/04/19 11:36:00;;;;;;;4.38;1.98;;;17.70;57.70;;;;;;5013281;28;20494;-63
2023/04/19 11:38:27;;;;;;;5.03;2.38;;;17.70;58.30;;;;;;4996624;28;20089;-63
2023/04/19 11:41:00;;;;;;;4.63;2.15;;;17.80;58.30;;;;;;5014050;28;20044;-62
2023/04/19 11:43:35;;;;;;;5.30;2.30;;;18.00;57.90;;;;;;5013861;28;20065;-65
2023/04/19 11:46:08;;;;;;;5.65;2.40;;;18.10;57.80;;;;;;5006994;28;20034;-62
2023/04/19 11:48:33;;;;;;;3.13;2.25;;;18.20;56.70;;;;;;5013642;28;20038;-62
2023/04/19 11:50:59;;;;;;;4.93;2.25;;;18.20;57.10;;;;;;5014202;28;20512;-62
2023/04/19 11:53:27;;;;;;;4.00;2.10;;;18.20;56.30;;;;;;5018794;28;20037;-62
2023/04/19 11:55:55;;;;;;;7.45;2.40;;;18.30;56.60;;;;;;5007381;28;20045;-63
2023/04/19 11:58:32;;;;;;;4.43;2.05;;;18.30;55.80;;;;;;5013599;28;20081;-62
2023/04/19 12:01:09;;;;;;;4.93;2.22;;;18.30;55.50;;;;;;5005522;28;20069;-62
2023/04/19 12:03:43;;;;;;;2.45;2.13;;;18.20;55.20;;;;;;5011485;28;20137;-62
2023/04/19 12:06:14;;;;;;;5.57;2.58;;;18.20;55.60;;;;;;4994838;28;20046;-63
2023/04/19 12:08:48;;;;;;;4.28;2.33;;;18.20;56.20;;;;;;5013163;28;20112;-66
2023/04/19 12:11:15;;;;;;;4.07;2.20;;;18.30;55.80;;;;;;5012490;28;20045;-63
2023/04/19 12:13:43;;;;;;;4.80;2.35;;;18.20;56.10;;;;;;4994671;28;20060;-63
2023/04/19 12:16:09;;;;;;;3.63;2.25;;;18.20;56.10;;;;;;4994630;28;20496;-64
2023/04/19 12:18:49;;;;;;;4.07;2.45;;;18.30;55.70;;;;;;5012260;28;20524;-63
2023/04/19 12:21:26;;;;;;;5.07;2.60;;;18.30;55.10;;;;;;5012696;28;20123;-66
2023/04/19 12:23:56;;;;;;;4.78;2.42;;;18.30;54.40;;;;;;4994095;28;20390;-62
2023/04/19 12:26:22;;;;;;;4.78;2.50;;;18.20;55.50;;;;;;5012449;28;20135;-62
2023/04/19 12:28:48;;;;;;;5.40;2.50;;;18.30;56.10;;;;;;5012478;28;20029;-62
2023/04/19 12:31:13;;;;;;;4.22;2.53;;;18.30;56.20;;;;;;5012423;28;20497;-62
2023/04/19 12:33:39;;;;;;;5.00;2.60;;;18.30;55.50;;;;;;4994960;28;20037;-63
2023/04/19 12:36:05;;;;;;;5.63;2.50;;;18.20;56.00;;;;;;5007479;28;20041;-62
2023/04/19 12:38:30;;;;;;;5.07;2.70;;;18.20;55.80;;;;;;5012264;28;20046;-62
2023/04/19 12:40:56;;;;;;;3.35;2.30;;;18.20;55.80;;;;;;5012409;28;20444;-62
2023/04/19 12:43:22;;;;;;;5.20;2.75;;;18.20;55.70;;;;;;5012058;28;20033;-63
2023/04/19 12:45:47;;;;;;;4.28;2.67;;;18.20;55.60;;;;;;5012172;28;20045;-65